Netherland Tide — YJVY9 — position and weather

sailwx.info

Track history (hours):
 
Tides and Currents Weather Stations Pressure Air Temp Water Temp Dewpoint Dewpoint Depression Visibility Wind Speed Wind Dir Waves Ship Positions

Netherland Tide

Last reported at 2017-Sep-17 17:28 UTC. Time now 2017-Sep-22 02:42 UTC.
Position S 05°29' E 011°33'.

Length 70 m; draft 5 m.

Type: Tug. MMSI: 576212000.

Date/timePositionNaut miles runAvg speedWind from/ knotsBaromVisibWave heightAir tempDewpointWater temp
2017-Sep-17 17:28S 05°29' E 011°33'2 4.1
2017-Sep-17 16:58S 05°29' E 011°31'0 0.1
2017-Sep-17 16:30S 05°29' E 011°31'0 0.0
2017-Sep-17 15:59S 05°29' E 011°31'0 0.0
2017-Sep-17 15:28S 05°29' E 011°31'0 0.0
2017-Sep-17 14:56S 05°29' E 011°31'0 0.0
2017-Sep-17 14:28S 05°29' E 011°31'0 0.0
2017-Sep-17 14:00S 05°29' E 011°31'0 0.2
2017-Sep-17 13:28S 05°29' E 011°31'2 3.5
2017-Sep-17 12:59S 05°30' E 011°32'2 0.1
2017-Sep-16 20:07S 05°31' E 011°34'112.0
2017-Sep-16 20:00S 05°30' E 011°33'3 4.9
2017-Sep-16 19:29S 05°29' E 011°31'0 0.0
2017-Sep-16 19:00S 05°29' E 011°31'0 0.2
2017-Sep-16 18:30S 05°29' E 011°31'0 0.1
2017-Sep-16 14:52S 05°30' E 011°31'0 0.3
2017-Sep-16 14:29S 05°30' E 011°31'  
2017-Sep-13 17:14S 05°25' E 011°40'0 0.0
2017-Sep-13 17:00S 05°25' E 011°40'0 0.0
2017-Sep-13 16:22S 05°25' E 011°40'0 0.0
2017-Sep-13 15:59S 05°25' E 011°40'3 0.8
2017-Sep-13 11:50S 05°22' E 011°40'0 0.4
2017-Sep-13 11:27S 05°22' E 011°39'21 3.2
2017-Sep-13 04:47S 05°39' E 011°26'8 0.4
2017-Sep-12 08:56S 05°32' E 011°30'3 6.9
2017-Sep-12 08:30S 05°29' E 011°31'0 0.1
2017-Sep-12 07:59S 05°29' E 011°31'0 0.2
2017-Sep-12 07:26S 05°29' E 011°31'0 0.0
2017-Sep-12 07:00S 05°29' E 011°31'0 0.3
2017-Sep-12 06:30S 05°29' E 011°31'0 0.5
2017-Sep-12 06:00S 05°29' E 011°30'0 0.7
2017-Sep-12 05:28S 05°29' E 011°31'0 0.3
2017-Sep-12 05:01S 05°29' E 011°31'1 1.0
2017-Sep-12 04:23S 05°29' E 011°32'513.7
2017-Sep-12 03:59S 05°28' E 011°37'3 0.1
2017-Sep-10 07:03S 05°25' E 011°39'0 5.8
2017-Sep-10 06:59S 05°25' E 011°39'0 0.2
2017-Sep-10 06:29S 05°25' E 011°39'0 0.1
2017-Sep-10 05:53S 05°25' E 011°39'0 0.1
2017-Sep-10 05:31S 05°25' E 011°39'0 0.0
2017-Sep-10 05:00S 05°25' E 011°39'0 0.1
2017-Sep-10 04:30S 05°25' E 011°39'0 0.3
2017-Sep-10 03:59S 05°25' E 011°39'0 0.1
2017-Sep-10 03:30S 05°25' E 011°39'2 3.9
2017-Sep-10 02:59S 05°24' E 011°41'2 0.1
2017-Sep-09 07:56S 05°26' E 011°40'1 1.4
2017-Sep-09 07:30S 05°25' E 011°39'0 0.2
2017-Sep-09 06:55S 05°25' E 011°39'0 0.0
2017-Sep-09 06:29S 05°25' E 011°39'0 0.5
2017-Sep-09 06:00S 05°25' E 011°39'0 0.0
2017-Sep-09 05:30S 05°25' E 011°39'0 0.1
2017-Sep-09 04:57S 05°25' E 011°39'0 0.0
2017-Sep-09 04:30S 05°25' E 011°39'0 0.0
2017-Sep-09 03:56S 05°25' E 011°39'  
Track history (hours):
 
Tides and Currents Weather Stations Pressure Air Temp Water Temp Dewpoint Dewpoint Depression Visibility Wind Speed Wind Dir Waves Ship Positions

Netherland Tide

Last reported at 2017-Sep-17 17:28 UTC. Time now 2017-Sep-22 02:42 UTC.
Position S 05°29' E 011°33'.

Length 70 m; draft 5 m.

Type: Tug. MMSI: 576212000.

Date/timePositionNaut miles runAvg speedWind from/ knotsBaromVisibWave heightAir tempDewpointWater temp
2017-Sep-17 17:28S 05°29' E 011°33'2 4.1
2017-Sep-17 16:58S 05°29' E 011°31'0 0.1
2017-Sep-17 16:30S 05°29' E 011°31'0 0.0
2017-Sep-17 15:59S 05°29' E 011°31'0 0.0
2017-Sep-17 15:28S 05°29' E 011°31'0 0.0
2017-Sep-17 14:56S 05°29' E 011°31'0 0.0
2017-Sep-17 14:28S 05°29' E 011°31'0 0.0
2017-Sep-17 14:00S 05°29' E 011°31'0 0.2
2017-Sep-17 13:28S 05°29' E 011°31'2 3.5
2017-Sep-17 12:59S 05°30' E 011°32'2 0.1
2017-Sep-16 20:07S 05°31' E 011°34'112.0
2017-Sep-16 20:00S 05°30' E 011°33'3 4.9
2017-Sep-16 19:29S 05°29' E 011°31'0 0.0
2017-Sep-16 19:00S 05°29' E 011°31'0 0.2
2017-Sep-16 18:30S 05°29' E 011°31'0 0.1
2017-Sep-16 14:52S 05°30' E 011°31'0 0.3
2017-Sep-16 14:29S 05°30' E 011°31'  
2017-Sep-13 17:14S 05°25' E 011°40'0 0.0
2017-Sep-13 17:00S 05°25' E 011°40'0 0.0
2017-Sep-13 16:22S 05°25' E 011°40'0 0.0
2017-Sep-13 15:59S 05°25' E 011°40'3 0.8
2017-Sep-13 11:50S 05°22' E 011°40'0 0.4
2017-Sep-13 11:27S 05°22' E 011°39'21 3.2
2017-Sep-13 04:47S 05°39' E 011°26'8 0.4
2017-Sep-12 08:56S 05°32' E 011°30'3 6.9
2017-Sep-12 08:30S 05°29' E 011°31'0 0.1
2017-Sep-12 07:59S 05°29' E 011°31'0 0.2
2017-Sep-12 07:26S 05°29' E 011°31'0 0.0
2017-Sep-12 07:00S 05°29' E 011°31'0 0.3
2017-Sep-12 06:30S 05°29' E 011°31'0 0.5
2017-Sep-12 06:00S 05°29' E 011°30'0 0.7
2017-Sep-12 05:28S 05°29' E 011°31'0 0.3
2017-Sep-12 05:01S 05°29' E 011°31'1 1.0
2017-Sep-12 04:23S 05°29' E 011°32'513.7
2017-Sep-12 03:59S 05°28' E 011°37'3 0.1
2017-Sep-10 07:03S 05°25' E 011°39'0 5.8
2017-Sep-10 06:59S 05°25' E 011°39'0 0.2
2017-Sep-10 06:29S 05°25' E 011°39'0 0.1
2017-Sep-10 05:53S 05°25' E 011°39'0 0.1
2017-Sep-10 05:31S 05°25' E 011°39'0 0.0
2017-Sep-10 05:00S 05°25' E 011°39'0 0.1
2017-Sep-10 04:30S 05°25' E 011°39'0 0.3
2017-Sep-10 03:59S 05°25' E 011°39'0 0.1
2017-Sep-10 03:30S 05°25' E 011°39'2 3.9
2017-Sep-10 02:59S 05°24' E 011°41'2 0.1
2017-Sep-09 07:56S 05°26' E 011°40'1 1.4
2017-Sep-09 07:30S 05°25' E 011°39'0 0.2
2017-Sep-09 06:55S 05°25' E 011°39'0 0.0
2017-Sep-09 06:29S 05°25' E 011°39'0 0.5
2017-Sep-09 06:00S 05°25' E 011°39'0 0.0
2017-Sep-09 05:30S 05°25' E 011°39'0 0.1
2017-Sep-09 04:57S 05°25' E 011°39'0 0.0
2017-Sep-09 04:30S 05°25' E 011°39'0 0.0
2017-Sep-09 03:56S 05°25' E 011°39'  

Dump ship's entire track history